sensor_id;sensor_type;location;lat;lon;timestamp;pressure;altitude;pressure_sealevel;temperature;humidity
69027;BME280;56080;47.594;19.116;2023-02-13T00:09:35;102416;;;0.40;84.15
69027;BME280;56080;47.594;19.116;2023-02-13T00:19:35;102421;;;0.50;84.45
69027;BME280;56080;47.594;19.116;2023-02-13T00:29:35;102424;;;0.33;84.42
69027;BME280;56080;47.594;19.116;2023-02-13T00:39:35;102423;;;0.02;82.86
69027;BME280;56080;47.594;19.116;2023-02-13T00:49:35;102411;;;-0.27;83.09
69027;BME280;56080;47.594;19.116;2023-02-13T00:59:35;102404;;;-0.57;83.58
69027;BME280;56080;47.594;19.116;2023-02-13T01:09:35;102408;;;-0.50;82.80
69027;BME280;56080;47.594;19.116;2023-02-13T01:19:35;102402;;;-0.70;83.24
69027;BME280;56080;47.594;19.116;2023-02-13T01:29:35;102406;;;-0.90;83.79
69027;BME280;56080;47.594;19.116;2023-02-13T01:39:35;102396;;;-1.06;82.53
69027;BME280;56080;47.594;19.116;2023-02-13T01:49:35;102406;;;-1.24;82.89
69027;BME280;56080;47.594;19.116;2023-02-13T01:59:37;102391;;;-1.50;83.94
69027;BME280;56080;47.594;19.116;2023-02-13T02:09:36;102395;;;-1.53;83.98
69027;BME280;56080;47.594;19.116;2023-02-13T02:49:45;102377;;;-1.81;84.12
69027;BME280;56080;47.594;19.116;2023-02-13T02:59:44;102379;;;-1.69;83.82
69027;BME280;56080;47.594;19.116;2023-02-13T03:09:46;102373;;;-1.59;84.83
69027;BME280;56080;47.594;19.116;2023-02-13T03:29:45;102386;;;-1.50;83.41
69027;BME280;56080;47.594;19.116;2023-02-13T03:49:45;102379;;;-1.61;84.47
69027;BME280;56080;47.594;19.116;2023-02-13T03:59:33;102372;;;-1.40;84.53
69027;BME280;56080;47.594;19.116;2023-02-13T04:09:34;102375;;;-1.42;88.43
69027;BME280;56080;47.594;19.116;2023-02-13T04:19:33;102372;;;-1.75;83.24
69027;BME280;56080;47.594;19.116;2023-02-13T04:29:33;102369;;;-2.19;83.08
69027;BME280;56080;47.594;19.116;2023-02-13T04:39:33;102349;;;-2.15;82.36
69027;BME280;56080;47.594;19.116;2023-02-13T04:49:32;102349;;;-2.63;83.63
69027;BME280;56080;47.594;19.116;2023-02-13T04:59:32;102343;;;-2.69;84.53
69027;BME280;56080;47.594;19.116;2023-02-13T05:09:32;102341;;;-2.78;84.25
69027;BME280;56080;47.594;19.116;2023-02-13T05:19:32;102329;;;-2.54;85.53
69027;BME280;56080;47.594;19.116;2023-02-13T05:29:31;102334;;;-2.62;84.54
69027;BME280;56080;47.594;19.116;2023-02-13T05:39:31;102328;;;-2.58;83.08
69027;BME280;56080;47.594;19.116;2023-02-13T05:49:32;102337;;;-2.56;83.91
69027;BME280;56080;47.594;19.116;2023-02-13T05:59:30;102364;;;-2.39;84.80
69027;BME280;56080;47.594;19.116;2023-02-13T06:09:30;102370;;;-2.37;85.15
69027;BME280;56080;47.594;19.116;2023-02-13T06:19:30;102382;;;-2.57;84.33
69027;BME280;56080;47.594;19.116;2023-02-13T06:29:31;102383;;;-2.58;84.54
69027;BME280;56080;47.594;19.116;2023-02-13T06:39:29;102384;;;-2.67;87.12
69027;BME280;56080;47.594;19.116;2023-02-13T06:49:29;102396;;;-2.26;86.64
69027;BME280;56080;47.594;19.116;2023-02-13T06:59:29;102402;;;-1.84;85.65
69027;BME280;56080;47.594;19.116;2023-02-13T07:09:29;102403;;;-1.56;86.99
69027;BME280;56080;47.594;19.116;2023-02-13T07:19:29;102397;;;-1.24;87.29
69027;BME280;56080;47.594;19.116;2023-02-13T07:29:28;102401;;;-1.08;87.81
69027;BME280;56080;47.594;19.116;2023-02-13T07:39:30;102401;;;-0.79;86.71
69027;BME280;56080;47.594;19.116;2023-02-13T07:49:28;102416;;;-0.26;85.73
69027;BME280;56080;47.594;19.116;2023-02-13T07:59:28;102420;;;0.47;83.02
69027;BME280;56080;47.594;19.116;2023-02-13T08:09:38;102409;;;1.79;78.52
69027;BME280;56080;47.594;19.116;2023-02-13T08:19:28;102408;;;3.12;73.11
69027;BME280;56080;47.594;19.116;2023-02-13T08:29:28;102405;;;3.70;69.00
69027;BME280;56080;47.594;19.116;2023-02-13T08:39:29;102411;;;4.43;65.10
69027;BME280;56080;47.594;19.116;2023-02-13T08:49:29;102399;;;5.23;63.03
69027;BME280;56080;47.594;19.116;2023-02-13T08:59:31;102395;;;5.89;59.57
69027;BME280;56080;47.594;19.116;2023-02-13T09:09:31;102408;;;6.33;56.38
69027;BME280;56080;47.594;19.116;2023-02-13T09:19:32;102399;;;7.59;52.43
69027;BME280;56080;47.594;19.116;2023-02-13T09:29:33;102393;;;9.34;47.04
69027;BME280;56080;47.594;19.116;2023-02-13T09:39:32;102387;;;9.71;46.34
69027;BME280;56080;47.594;19.116;2023-02-13T09:49:34;102382;;;10.44;44.07
69027;BME280;56080;47.594;19.116;2023-02-13T09:59:38;102364;;;10.80;43.01
69027;BME280;56080;47.594;19.116;2023-02-13T10:19:38;102348;;;10.30;45.25
69027;BME280;56080;47.594;19.116;2023-02-13T10:29:47;102344;;;10.13;45.74
69027;BME280;56080;47.594;19.116;2023-02-13T10:39:39;102336;;;9.05;47.54
69027;BME280;56080;47.594;19.116;2023-02-13T10:49:49;102325;;;8.35;50.38
69027;BME280;56080;47.594;19.116;2023-02-13T11:09:40;102308;;;7.62;53.58
69027;BME280;56080;47.594;19.116;2023-02-13T11:19:56;102289;;;7.44;54.46
69027;BME280;56080;47.594;19.116;2023-02-13T11:29:50;102274;;;7.34;55.14
69027;BME280;56080;47.594;19.116;2023-02-13T11:39:41;102262;;;7.41;55.26
69027;BME280;56080;47.594;19.116;2023-02-13T11:49:44;102241;;;7.83;54.60
69027;BME280;56080;47.594;19.116;2023-02-13T11:59:42;102238;;;7.76;54.68
69027;BME280;56080;47.594;19.116;2023-02-13T12:09:42;102234;;;7.61;55.26
69027;BME280;56080;47.594;19.116;2023-02-13T12:19:45;102224;;;7.96;54.94
69027;BME280;56080;47.594;19.116;2023-02-13T12:39:50;102199;;;8.18;54.94
69027;BME280;56080;47.594;19.116;2023-02-13T12:49:56;102171;;;8.12;55.36
69027;BME280;56080;47.594;19.116;2023-02-13T13:19:51;102151;;;8.35;56.11
69027;BME280;56080;47.594;19.116;2023-02-13T13:29:52;102149;;;8.45;56.48
69027;BME280;56080;47.594;19.116;2023-02-13T13:49:57;102138;;;8.32;57.35
69027;BME280;56080;47.594;19.116;2023-02-13T13:59:54;102127;;;8.59;56.19
69027;BME280;56080;47.594;19.116;2023-02-13T14:19:51;102143;;;8.53;56.05
69027;BME280;56080;47.594;19.116;2023-02-13T14:29:51;102152;;;8.04;59.70
69027;BME280;56080;47.594;19.116;2023-02-13T14:49:52;102155;;;8.27;60.48
69027;BME280;56080;47.594;19.116;2023-02-13T14:59:57;102150;;;8.18;61.28
69027;BME280;56080;47.594;19.116;2023-02-13T15:10:03;102156;;;8.10;61.62
69027;BME280;56080;47.594;19.116;2023-02-13T15:19:55;102159;;;8.07;61.94
69027;BME280;56080;47.594;19.116;2023-02-13T15:29:56;102168;;;8.04;62.19
69027;BME280;56080;47.594;19.116;2023-02-13T15:40:08;102155;;;7.85;62.94
69027;BME280;56080;47.594;19.116;2023-02-13T15:49:56;102152;;;7.83;63.38
69027;BME280;56080;47.594;19.116;2023-02-13T15:59:57;102133;;;7.80;63.31
69027;BME280;56080;47.594;19.116;2023-02-13T16:20:06;102154;;;7.12;65.41
69027;BME280;56080;47.594;19.116;2023-02-13T16:29:59;102144;;;6.99;65.88
69027;BME280;56080;47.594;19.116;2023-02-13T16:50:02;102144;;;6.53;67.62
69027;BME280;56080;47.594;19.116;2023-02-13T17:00:02;102145;;;6.37;68.45
69027;BME280;56080;47.594;19.116;2023-02-13T17:10:17;102126;;;6.39;68.53
69027;BME280;56080;47.594;19.116;2023-02-13T17:20:03;102112;;;6.19;69.80
69027;BME280;56080;47.594;19.116;2023-02-13T17:30:06;102111;;;6.32;69.75
69027;BME280;56080;47.594;19.116;2023-02-13T17:40:02;102111;;;6.16;69.71
69027;BME280;56080;47.594;19.116;2023-02-13T17:50:11;102089;;;5.99;70.36
69027;BME280;56080;47.594;19.116;2023-02-13T18:00:04;102087;;;5.76;71.87
69027;BME280;56080;47.594;19.116;2023-02-13T18:10:05;102068;;;5.68;71.69
69027;BME280;56080;47.594;19.116;2023-02-13T18:20:09;102067;;;5.58;72.76
69027;BME280;56080;47.594;19.116;2023-02-13T18:30:05;102063;;;5.62;73.51
69027;BME280;56080;47.594;19.116;2023-02-13T18:40:10;102054;;;5.40;74.60
69027;BME280;56080;47.594;19.116;2023-02-13T18:50:08;102048;;;5.45;74.85
69027;BME280;56080;47.594;19.116;2023-02-13T19:00:08;102046;;;4.76;73.75
69027;BME280;56080;47.594;19.116;2023-02-13T19:10:10;102037;;;4.28;74.95
69027;BME280;56080;47.594;19.116;2023-02-13T19:20:11;102046;;;3.72;77.54
69027;BME280;56080;47.594;19.116;2023-02-13T19:30:11;102044;;;3.70;76.19
69027;BME280;56080;47.594;19.116;2023-02-13T19:40:12;102046;;;3.39;76.15
69027;BME280;56080;47.594;19.116;2023-02-13T19:50:09;102043;;;3.12;77.07
69027;BME280;56080;47.594;19.116;2023-02-13T20:00:13;102030;;;2.73;76.84
69027;BME280;56080;47.594;19.116;2023-02-13T20:10:10;102019;;;2.52;76.95
69027;BME280;56080;47.594;19.116;2023-02-13T20:20:10;102015;;;2.44;78.60
69027;BME280;56080;47.594;19.116;2023-02-13T20:30:15;102012;;;2.34;78.26
69027;BME280;56080;47.594;19.116;2023-02-13T20:40:11;102009;;;2.14;78.51
69027;BME280;56080;47.594;19.116;2023-02-13T20:50:12;102008;;;2.24;79.26
69027;BME280;56080;47.594;19.116;2023-02-13T21:00:12;102009;;;2.15;80.27
69027;BME280;56080;47.594;19.116;2023-02-13T21:10:10;102010;;;2.04;79.62
69027;BME280;56080;47.594;19.116;2023-02-13T21:20:10;102010;;;1.95;79.34
69027;BME280;56080;47.594;19.116;2023-02-13T21:30:11;102014;;;2.18;81.52
69027;BME280;56080;47.594;19.116;2023-02-13T21:40:11;102012;;;1.76;79.76
69027;BME280;56080;47.594;19.116;2023-02-13T21:50:11;102033;;;1.58;79.47
69027;BME280;56080;47.594;19.116;2023-02-13T22:00:11;102036;;;1.48;79.99
69027;BME280;56080;47.594;19.116;2023-02-13T22:10:11;102037;;;1.75;81.50
69027;BME280;56080;47.594;19.116;2023-02-13T22:20:12;102030;;;2.66;81.99
69027;BME280;56080;47.594;19.116;2023-02-13T22:30:12;102019;;;3.11;83.02
69027;BME280;56080;47.594;19.116;2023-02-13T22:40:12;102012;;;3.22;83.17
69027;BME280;56080;47.594;19.116;2023-02-13T22:50:12;102005;;;3.19;83.71
69027;BME280;56080;47.594;19.116;2023-02-13T23:00:12;102003;;;3.38;83.21
69027;BME280;56080;47.594;19.116;2023-02-13T23:10:13;102007;;;3.23;83.56
69027;BME280;56080;47.594;19.116;2023-02-13T23:20:13;102010;;;3.24;83.60
69027;BME280;56080;47.594;19.116;2023-02-13T23:30:13;101983;;;3.17;84.81
69027;BME280;56080;47.594;19.116;2023-02-13T23:40:14;101983;;;3.12;85.16
69027;BME280;56080;47.594;19.116;2023-02-13T23:50:14;101974;;;2.81;86.11
